Accueil
METAR-TAF:

METAR-TAF

Aéroports :

Aéroport international de Christchurch

Christchurch, Nouvelle-Zélande

latitude: 43-29S, longitude: 172-33E, altitude: 38 m

Observation

Le bulletin a été fait il y a 36 minutes, à 20:00 UTC
Vent 4 kt de nord-est
Température 11°C
Humidité 71%
Pression 1016 hPa
Visibilité 10 km ou plus

METAR: NZCH 202000Z AUTO 05004KT 9999 NCD 11/06 Q1016 NOSIG

Heure: 09:36 (20:36 UTC)

Prévision

Le bulletin a été fait il y a 3 heures et 35 minutes, à 17:01 UTC
Prévision valable du 20 à 18 UTC au 21 à 18 UTC
Vent 2 kt de direction variable
Visibilité 10 km ou plus
Quelques nuages à une hauteur de 6000 ft
Evoluant progressivement
du 20 à 22 UTC au 21 à 00 UTC
Vent 10 kt de est/nord-est
Evoluant progressivement
du 21 à 07 UTC au 21 à 09 UTC
Vent 5 kt de nord-ouest

TAF: NZCH 201701Z 2018/2118 VRB02KT 9999 FEW060 BECMG 2022/2100 06010KT BECMG 2107/2109 32005KT

Observations et prévisions météorologiques de plus de 4000 aéroports (messages METAR et TAF).

Les stations disponibles sont représentées par des disques jaunes et rouges sur la carte.

Passer la souris dessus pour voir le nom de la station.

Cliquer dessus pour voir les observations et prévisions météorologiques.

Pour changer de carte: cliquez sur les boutons verts avec une croix noire pour zoomer, sur le bouton vert avec un tiret pour effectuer un zoom arrière, ou sur les flèches vertes pour les cartes adjacentes.


METAR-TAF: